createdAt,value
2018-12-20T00:00:20.374Z,38.00
2018-12-20T00:02:48.285Z,39.10
2018-12-20T00:05:16.178Z,40.37
2018-12-20T00:07:44.061Z,42.60
2018-12-20T00:10:12.076Z,39.57
2018-12-20T00:12:40.078Z,39.17
2018-12-20T00:15:08.289Z,40.43
2018-12-20T00:17:41.986Z,40.10
2018-12-20T00:20:10.055Z,37.03
2018-12-20T00:22:38.217Z,34.17
2018-12-20T00:25:07.447Z,38.70
2018-12-20T00:27:35.583Z,40.57
2018-12-20T00:30:04.914Z,39.47
2018-12-20T00:32:32.825Z,38.97
2018-12-20T00:35:00.748Z,42.43
2018-12-20T00:37:28.571Z,38.23
2018-12-20T00:39:56.500Z,42.83
2018-12-20T00:42:24.292Z,45.27
2018-12-20T00:44:52.119Z,39.97
2018-12-20T00:47:20.005Z,42.80
2018-12-20T00:49:47.919Z,41.17
2018-12-20T00:52:15.782Z,36.23
2018-12-20T00:54:43.662Z,37.33
2018-12-20T00:57:11.527Z,32.03
2018-12-20T00:59:39.352Z,36.20
2018-12-20T01:02:08.083Z,34.27
2018-12-20T01:04:35.986Z,32.13
2018-12-20T01:07:05.207Z,32.57
2018-12-20T01:09:35.867Z,33.80
2018-12-20T01:12:03.795Z,32.00
2018-12-20T01:14:31.737Z,36.37
2018-12-20T01:16:59.708Z,32.37
2018-12-20T01:19:27.562Z,30.37
2018-12-20T01:21:55.411Z,39.80
2018-12-20T01:24:23.280Z,35.87
2018-12-20T01:26:51.302Z,38.80
2018-12-20T01:29:19.351Z,38.23
2018-12-20T01:31:47.287Z,36.27
2018-12-20T01:34:15.315Z,32.77
2018-12-20T01:36:43.760Z,32.83
2018-12-20T01:39:11.772Z,33.53
2018-12-20T01:41:39.647Z,31.60
2018-12-20T01:44:08.041Z,31.40
2018-12-20T01:46:36.075Z,31.67
2018-12-20T01:49:04.045Z,27.53
2018-12-20T01:51:31.867Z,26.90
2018-12-20T01:53:59.639Z,25.00
2018-12-20T01:56:27.569Z,24.20
2018-12-20T01:58:55.506Z,28.87
2018-12-20T02:01:23.443Z,28.57
2018-12-20T02:03:51.281Z,25.07
2018-12-20T02:06:19.276Z,28.90
2018-12-20T02:08:47.219Z,25.53
2018-12-20T02:11:15.066Z,24.97
2018-12-20T02:13:42.865Z,24.90
2018-12-20T02:16:10.620Z,25.00
2018-12-20T02:18:38.612Z,22.50
2018-12-20T02:21:06.566Z,21.43
2018-12-20T02:23:34.465Z,23.47
2018-12-20T02:26:02.547Z,26.57
2018-12-20T02:28:30.392Z,23.33
2018-12-20T02:30:58.325Z,24.50
2018-12-20T02:33:26.107Z,22.90
2018-12-20T02:35:53.983Z,23.07
2018-12-20T02:38:21.860Z,19.60
2018-12-20T02:40:49.914Z,21.27
2018-12-20T02:43:18.087Z,18.97
2018-12-20T02:45:46.071Z,20.23
2018-12-20T02:48:14.047Z,17.67
2018-12-20T02:50:41.936Z,18.97
2018-12-20T02:53:09.749Z,18.67
2018-12-20T02:55:37.647Z,19.50
2018-12-20T02:58:05.480Z,19.20
2018-12-20T03:00:33.483Z,18.60
2018-12-20T03:03:01.311Z,18.30
2018-12-20T03:05:29.113Z,21.73
2018-12-20T03:07:57.108Z,18.93
2018-12-20T03:10:25.549Z,19.93
2018-12-20T03:12:53.589Z,21.03
2018-12-20T03:15:21.602Z,19.40
2018-12-20T03:17:49.846Z,17.17
2018-12-20T03:20:17.860Z,16.93
2018-12-20T03:22:45.668Z,20.87
2018-12-20T03:25:13.465Z,17.70
2018-12-20T03:27:41.299Z,18.27
2018-12-20T03:30:09.230Z,19.23
2018-12-20T03:32:37.180Z,20.73
2018-12-20T03:35:05.109Z,20.47
2018-12-20T03:37:32.918Z,19.47
2018-12-20T03:40:00.765Z,20.17
2018-12-20T03:42:28.684Z,19.23
2018-12-20T03:44:56.685Z,21.70
2018-12-20T03:47:24.813Z,20.13
2018-12-20T03:49:52.899Z,20.07
2018-12-20T03:52:21.199Z,20.27
2018-12-20T03:54:48.989Z,19.63
2018-12-20T03:57:16.926Z,21.77
2018-12-20T03:59:45.130Z,20.20
2018-12-20T04:02:13.146Z,22.07
2018-12-20T04:04:40.961Z,23.87
2018-12-20T04:07:08.850Z,21.70
2018-12-20T04:09:36.844Z,21.33
2018-12-20T04:12:04.974Z,25.53
2018-12-20T04:14:32.960Z,21.77
2018-12-20T04:17:00.928Z,25.10
2018-12-20T04:19:29.246Z,26.83
2018-12-20T04:21:57.153Z,30.70
2018-12-20T04:24:28.066Z,29.77
2018-12-20T04:26:56.087Z,26.53
2018-12-20T04:29:23.995Z,25.10
2018-12-20T04:31:51.956Z,25.23
2018-12-20T04:34:19.941Z,24.77
2018-12-20T04:36:47.835Z,27.97
2018-12-20T04:39:15.707Z,24.33
2018-12-20T04:41:43.512Z,27.03
2018-12-20T04:44:11.516Z,27.70
2018-12-20T04:46:39.417Z,31.77
2018-12-20T04:49:07.204Z,25.67
2018-12-20T04:51:35.331Z,23.93
2018-12-20T04:54:03.364Z,21.10
2018-12-20T04:56:31.311Z,24.03
2018-12-20T04:58:59.247Z,35.93
2018-12-20T05:01:27.469Z,29.73
2018-12-20T05:03:55.476Z,21.30
2018-12-20T05:06:23.964Z,18.77
2018-12-20T05:08:51.934Z,17.40
2018-12-20T05:11:19.824Z,18.53
2018-12-20T05:13:47.667Z,18.40
2018-12-20T05:16:15.522Z,17.43
2018-12-20T05:18:43.599Z,16.93
2018-12-20T05:21:11.489Z,15.37
2018-12-20T05:23:39.557Z,18.57
2018-12-20T05:26:07.578Z,19.37
2018-12-20T05:28:35.638Z,18.40
2018-12-20T05:31:03.869Z,16.93
2018-12-20T05:33:32.072Z,17.13
2018-12-20T05:35:59.982Z,17.37
2018-12-20T05:38:27.943Z,20.20
2018-12-20T05:40:56.121Z,17.23
2018-12-20T05:43:23.972Z,18.40
2018-12-20T05:45:51.944Z,18.40
2018-12-20T05:48:19.774Z,18.50
2018-12-20T05:50:47.599Z,18.03
2018-12-20T05:53:15.474Z,17.70
2018-12-20T05:55:43.332Z,18.47
2018-12-20T05:58:11.135Z,19.10
2018-12-20T06:00:39.472Z,17.33
2018-12-20T06:03:07.498Z,24.37
2018-12-20T06:05:35.291Z,15.80
2018-12-20T06:08:03.047Z,19.50
2018-12-20T06:10:30.819Z,15.67
2018-12-20T06:12:58.688Z,19.47
2018-12-20T06:15:26.608Z,18.73
2018-12-20T06:17:54.608Z,18.97
2018-12-20T06:20:22.512Z,16.50
2018-12-20T06:22:50.279Z,19.10
2018-12-20T06:25:18.194Z,18.00
2018-12-20T06:27:46.011Z,15.87
2018-12-20T06:30:13.899Z,18.33
2018-12-20T06:32:41.652Z,15.93
2018-12-20T06:35:09.454Z,14.47
2018-12-20T06:37:37.224Z,17.10
2018-12-20T06:40:05.271Z,17.30
2018-12-20T06:42:33.096Z,18.50
2018-12-20T06:45:00.858Z,15.77
2018-12-20T06:47:28.630Z,18.77
2018-12-20T06:49:56.430Z,16.63
2018-12-20T06:52:24.599Z,18.40
2018-12-20T06:54:52.455Z,16.50
2018-12-20T06:57:20.267Z,19.83
2018-12-20T06:59:48.119Z,17.47
2018-12-20T07:02:16.179Z,19.83
2018-12-20T07:04:44.010Z,23.70
2018-12-20T07:07:11.881Z,21.40
2018-12-20T07:09:39.655Z,21.00
2018-12-20T07:12:08.537Z,15.83
2018-12-20T07:14:36.446Z,16.43
2018-12-20T07:17:04.267Z,14.80
2018-12-20T07:19:32.164Z,17.60
2018-12-20T07:21:59.968Z,17.37
2018-12-20T07:24:27.767Z,20.73
2018-12-20T07:26:55.585Z,18.23
2018-12-20T07:29:23.511Z,20.83
2018-12-20T07:31:51.625Z,19.70
2018-12-20T07:34:19.591Z,18.70
2018-12-20T07:36:47.547Z,23.80
2018-12-20T07:39:15.343Z,15.87
2018-12-20T07:41:43.147Z,16.43
2018-12-20T07:44:11.021Z,16.33
2018-12-20T07:46:38.852Z,14.70
2018-12-20T07:49:06.777Z,20.87
2018-12-20T07:51:35.143Z,20.70
2018-12-20T09:17:44.239Z,15.83
2018-12-20T09:20:12.111Z,13.23
2018-12-20T09:22:39.843Z,17.87
2018-12-20T09:25:07.698Z,16.80
2018-12-20T09:27:35.532Z,13.83
2018-12-20T09:30:03.587Z,14.70
2018-12-20T09:32:31.395Z,15.37
2018-12-20T09:34:59.612Z,15.47
2018-12-20T09:37:27.421Z,15.07
2018-12-20T09:39:55.347Z,14.50
2018-12-20T09:42:23.331Z,16.33
2018-12-20T09:44:51.277Z,14.97
2018-12-20T09:47:24.695Z,18.00
2018-12-20T09:49:52.832Z,16.60
2018-12-20T09:52:20.919Z,17.43
2018-12-20T09:54:48.684Z,15.03
2018-12-20T09:57:16.722Z,16.40
2018-12-20T09:59:44.607Z,14.63
2018-12-20T10:02:12.352Z,14.53
2018-12-20T10:04:40.101Z,13.80
2018-12-20T10:07:08.147Z,11.17
2018-12-20T10:09:35.909Z,14.07
2018-12-20T10:15:02.731Z,11.23
2018-12-20T10:17:30.534Z,15.10
2018-12-20T10:19:58.282Z,12.23
2018-12-20T10:22:26.247Z,11.00
2018-12-20T10:24:54.107Z,12.27
2018-12-20T10:27:22.026Z,12.03
2018-12-20T10:29:49.771Z,15.63
2018-12-20T10:32:17.525Z,12.07
2018-12-20T10:34:45.303Z,11.70
2018-12-20T10:37:13.123Z,9.87
2018-12-20T10:39:40.870Z,10.13
2018-12-20T10:42:08.635Z,10.07
2018-12-20T10:44:36.398Z,10.00
2018-12-20T10:47:09.764Z,9.17
2018-12-20T10:49:37.582Z,12.80
2018-12-20T10:52:05.492Z,9.10
2018-12-20T10:54:33.307Z,8.83
2018-12-20T10:57:01.559Z,8.67
2018-12-20T10:59:29.319Z,12.97
2018-12-20T11:02:02.686Z,10.53
2018-12-20T11:04:34.951Z,12.83
2018-12-20T11:13:36.013Z,9.67
2018-12-20T11:16:04.779Z,10.27
2018-12-20T11:18:32.526Z,10.53
2018-12-20T11:21:00.258Z,10.80
2018-12-20T11:23:28.200Z,10.63
2018-12-20T11:25:56.151Z,12.77
2018-12-20T11:28:24.057Z,10.70
2018-12-20T11:30:51.830Z,11.80
2018-12-20T11:33:19.668Z,12.43
2018-12-20T11:35:47.459Z,14.07
2018-12-20T11:38:15.243Z,14.30
2018-12-20T11:40:43.018Z,11.30
2018-12-20T11:43:10.835Z,11.77
2018-12-20T11:45:38.583Z,12.67
2018-12-20T11:48:06.364Z,14.70
2018-12-20T11:50:34.180Z,14.40
2018-12-20T11:53:01.943Z,13.33
2018-12-20T11:55:29.732Z,14.90
2018-12-20T11:57:57.531Z,15.60
2018-12-20T12:00:25.438Z,11.93
2018-12-20T12:02:53.339Z,11.67
2018-12-20T12:05:21.144Z,15.53
2018-12-20T12:07:49.596Z,13.40
2018-12-20T12:10:17.585Z,16.47
2018-12-20T12:12:45.338Z,13.90
2018-12-20T12:15:13.347Z,15.00
2018-12-20T12:17:41.074Z,16.37
2018-12-20T12:20:08.875Z,15.73
2018-12-20T12:22:36.647Z,12.57
2018-12-20T12:25:05.450Z,12.20
2018-12-20T12:27:33.240Z,12.97
2018-12-20T12:30:01.050Z,12.80
2018-12-20T12:32:28.819Z,11.43
2018-12-20T12:34:56.557Z,11.07
2018-12-20T12:37:24.309Z,10.83
2018-12-20T12:39:52.274Z,8.63
2018-12-20T12:42:20.116Z,7.27
2018-12-20T12:44:47.868Z,7.97
2018-12-20T12:47:17.805Z,6.20
2018-12-20T12:49:45.619Z,6.70
2018-12-20T12:52:13.517Z,5.53
2018-12-20T12:54:41.298Z,5.53
2018-12-20T12:57:09.071Z,4.87
2018-12-20T12:59:36.825Z,5.37
2018-12-20T13:02:04.738Z,3.57
2018-12-20T13:04:32.532Z,5.27
2018-12-20T13:07:00.272Z,2.40
2018-12-20T13:09:27.990Z,2.60
2018-12-20T13:11:55.794Z,5.80
2018-12-20T13:14:23.747Z,6.40
2018-12-20T13:16:51.455Z,5.60
2018-12-20T13:19:19.275Z,6.13
2018-12-20T13:21:46.998Z,4.83
2018-12-20T13:24:14.715Z,5.47
2018-12-20T13:26:42.531Z,5.13
2018-12-20T13:29:10.285Z,6.23
2018-12-20T13:31:38.067Z,7.00
2018-12-20T13:34:05.818Z,9.70
2018-12-20T13:36:33.595Z,8.87
2018-12-20T13:39:01.315Z,6.77
2018-12-20T13:41:29.079Z,11.67
2018-12-20T13:43:56.903Z,10.00
2018-12-20T13:46:24.714Z,11.17
2018-12-20T13:48:52.492Z,12.07
2018-12-20T13:51:20.470Z,10.07
2018-12-20T13:53:48.543Z,10.60
2018-12-20T13:56:16.386Z,12.73
2018-12-20T13:58:44.119Z,11.90
2018-12-20T14:01:12.093Z,12.47
2018-12-20T14:03:39.927Z,13.20
2018-12-20T14:06:08.551Z,13.30
2018-12-20T14:08:36.320Z,16.70
2018-12-20T14:11:05.776Z,17.73
2018-12-20T14:13:33.510Z,15.80
2018-12-20T14:16:01.264Z,14.67
2018-12-20T14:18:31.162Z,12.10
2018-12-20T14:20:58.776Z,12.63
2018-12-20T14:23:26.538Z,11.73
2018-12-20T14:25:54.328Z,10.17
2018-12-20T14:28:22.358Z,11.40
2018-12-20T14:30:50.143Z,12.07
2018-12-20T14:33:17.927Z,14.73
2018-12-20T14:35:45.703Z,17.13
2018-12-20T14:38:13.457Z,15.23
2018-12-20T14:40:41.239Z,9.90
2018-12-20T14:43:09.063Z,8.83
2018-12-20T14:45:37.034Z,10.10
2018-12-20T14:48:04.803Z,7.97
2018-12-20T14:50:32.554Z,8.90
2018-12-20T14:53:00.291Z,8.43
2018-12-20T14:55:28.059Z,8.27
2018-12-20T14:57:55.928Z,8.60
2018-12-20T15:00:24.047Z,8.37
2018-12-20T15:02:51.814Z,10.17
2018-12-20T15:05:20.202Z,8.03
2018-12-20T15:07:47.939Z,9.77
2018-12-20T15:10:15.674Z,7.80
2018-12-20T15:12:43.439Z,8.80
2018-12-20T15:15:11.146Z,7.57
2018-12-20T15:17:38.887Z,7.57
2018-12-20T15:20:08.197Z,7.40
2018-12-20T15:22:36.003Z,6.90
2018-12-20T15:25:04.075Z,6.70
2018-12-20T15:27:31.799Z,6.70
2018-12-20T15:29:59.672Z,7.07
2018-12-20T15:32:27.472Z,6.43
2018-12-20T15:34:55.348Z,6.70
2018-12-20T15:37:23.083Z,9.17
2018-12-20T15:39:50.821Z,7.40
2018-12-20T15:42:18.684Z,8.90
2018-12-20T15:44:46.428Z,8.40
2018-12-20T15:47:14.204Z,7.53
2018-12-20T15:49:42.331Z,11.93
2018-12-20T15:52:10.125Z,16.13
2018-12-20T15:54:37.939Z,12.67
2018-12-20T15:57:05.847Z,11.87
2018-12-20T15:59:34.543Z,13.30
2018-12-20T16:02:02.234Z,11.70
2018-12-20T16:04:29.968Z,12.17
2018-12-20T16:06:57.869Z,9.47
2018-12-20T16:09:25.859Z,10.87
2018-12-20T16:11:53.618Z,7.13
2018-12-20T16:14:21.403Z,11.43
2018-12-20T16:16:49.159Z,12.97
2018-12-20T16:19:17.001Z,13.23
2018-12-20T16:21:44.757Z,10.20
2018-12-20T16:24:12.607Z,8.03
2018-12-20T16:26:40.387Z,6.63
2018-12-20T16:29:08.153Z,7.57
2018-12-20T16:31:35.883Z,6.70
2018-12-20T16:34:04.191Z,6.77
2018-12-20T16:36:32.047Z,6.17
2018-12-20T16:38:59.851Z,6.00
2018-12-20T16:41:27.750Z,8.20
2018-12-20T16:43:55.653Z,6.20
2018-12-20T16:46:23.411Z,8.50
2018-12-20T16:48:53.475Z,7.73
2018-12-20T16:51:21.398Z,7.53
2018-12-20T16:53:49.147Z,9.57
2018-12-20T16:56:16.959Z,8.00
2018-12-20T16:58:44.739Z,8.80
2018-12-20T17:01:14.768Z,9.93
2018-12-20T17:03:42.532Z,6.50
2018-12-20T17:06:10.927Z,7.90
2018-12-20T17:08:38.731Z,6.80
2018-12-20T17:11:07.643Z,7.07
2018-12-20T17:13:35.875Z,6.83
2018-12-20T17:16:03.799Z,6.13
2018-12-20T17:18:31.607Z,6.20
2018-12-20T17:26:46.144Z,7.57
2018-12-20T17:29:13.891Z,5.80
2018-12-20T17:31:41.663Z,5.03
2018-12-20T17:34:09.446Z,7.63
2018-12-20T17:36:37.344Z,6.87
2018-12-20T17:39:07.199Z,5.63
2018-12-20T17:41:34.994Z,5.20
2018-12-20T17:44:03.421Z,5.30
2018-12-20T17:46:31.223Z,6.67
2018-12-20T17:48:59.083Z,5.60
2018-12-20T17:51:27.022Z,6.50
2018-12-20T17:53:56.583Z,5.30
2018-12-20T17:56:24.492Z,5.30
2018-12-20T17:58:52.275Z,5.90
2018-12-20T18:01:20.071Z,5.93
2018-12-20T18:03:47.845Z,6.13
2018-12-20T18:06:15.651Z,5.10
2018-12-20T18:08:43.707Z,5.97
2018-12-20T18:11:11.514Z,4.70
2018-12-20T18:13:39.286Z,5.70
2018-12-20T18:16:07.035Z,5.53
2018-12-20T18:18:34.849Z,7.90
2018-12-20T18:21:04.705Z,7.43
2018-12-20T18:23:32.545Z,7.00
2018-12-20T18:26:00.363Z,6.37
2018-12-20T18:28:28.235Z,7.13
2018-12-20T18:30:56.151Z,7.53
2018-12-20T18:33:23.876Z,6.13
2018-12-20T18:35:51.680Z,7.37
2018-12-20T18:38:19.539Z,6.10
2018-12-20T18:40:47.311Z,6.27
2018-12-20T18:43:15.140Z,5.70
2018-12-20T18:45:42.907Z,5.30
2018-12-20T18:48:10.996Z,7.87
2018-12-20T18:50:38.805Z,7.30
2018-12-20T18:53:06.586Z,6.20
2018-12-20T18:55:34.403Z,5.33
2018-12-20T18:58:02.251Z,6.07
2018-12-20T19:00:30.100Z,5.57
2018-12-20T19:02:57.919Z,5.90
2018-12-20T19:05:25.726Z,6.10
2018-12-20T19:07:53.536Z,6.00
2018-12-20T19:10:21.371Z,6.27
2018-12-20T19:12:49.150Z,7.17
2018-12-20T19:15:16.972Z,6.70
2018-12-20T19:17:44.707Z,6.97
2018-12-20T19:22:43.071Z,7.60
2018-12-20T19:22:56.225Z,7.73
2018-12-20T19:25:10.822Z,7.67
2018-12-20T19:27:38.623Z,6.97
2018-12-20T19:30:08.672Z,6.83
2018-12-20T19:32:36.451Z,8.73
2018-12-20T19:35:04.648Z,7.93
2018-12-20T19:37:32.403Z,7.90
2018-12-20T19:40:03.807Z,7.37
2018-12-20T19:42:31.524Z,8.87
2018-12-20T19:44:59.435Z,8.17
2018-12-20T19:47:27.300Z,9.10
2018-12-20T19:49:55.094Z,6.93
2018-12-20T19:52:22.879Z,7.57
2018-12-20T19:54:50.660Z,6.70
2018-12-20T19:57:18.704Z,6.73
2018-12-20T19:59:46.467Z,5.13
2018-12-20T20:02:14.304Z,8.63
2018-12-20T20:04:42.039Z,8.27
2018-12-20T20:07:09.899Z,8.77
2018-12-20T20:09:37.686Z,6.03
2018-12-20T20:12:05.510Z,6.20
2018-12-20T20:14:33.342Z,6.13
2018-12-20T20:17:01.139Z,6.47
2018-12-20T20:19:29.280Z,6.77
2018-12-20T20:21:57.132Z,6.00
2018-12-20T20:24:24.979Z,5.30
2018-12-20T20:26:53.089Z,6.33
2018-12-20T20:29:20.835Z,4.97
2018-12-20T20:31:48.644Z,7.33
2018-12-20T20:34:16.494Z,7.03
2018-12-20T20:36:44.225Z,6.30
2018-12-20T20:39:11.949Z,6.27
2018-12-20T20:41:39.722Z,6.80
2018-12-20T20:44:07.504Z,8.60
2018-12-20T20:46:35.327Z,9.37
2018-12-20T20:49:03.195Z,9.40
2018-12-20T20:51:30.977Z,9.00
2018-12-20T20:53:58.920Z,8.07
2018-12-20T20:56:27.879Z,8.10
2018-12-20T20:58:56.718Z,5.10
2018-12-20T21:01:24.535Z,7.53
2018-12-20T21:03:52.263Z,6.40
2018-12-20T21:06:19.978Z,5.87
2018-12-20T21:23:25.274Z,6.13
2018-12-20T21:25:53.088Z,7.33
2018-12-20T21:28:20.831Z,6.23
2018-12-20T21:30:48.695Z,5.63
2018-12-20T21:33:16.459Z,7.07
2018-12-20T21:35:44.191Z,7.03
2018-12-20T21:55:38.533Z,7.30
2018-12-20T22:01:13.444Z,8.50
2018-12-20T22:03:41.233Z,5.77
2018-12-20T22:06:09.601Z,7.37
2018-12-20T22:08:37.404Z,5.90
2018-12-20T22:11:05.268Z,6.47
2018-12-20T22:13:32.975Z,5.40
2018-12-20T22:16:00.849Z,8.30
2018-12-20T22:18:28.639Z,6.67
2018-12-20T22:20:56.408Z,5.93
2018-12-20T22:23:24.466Z,6.13
2018-12-20T22:25:52.471Z,5.80
2018-12-20T22:28:20.259Z,7.27
2018-12-20T22:30:48.058Z,5.67
2018-12-20T22:33:15.807Z,6.83
2018-12-20T22:35:43.671Z,7.27
2018-12-20T22:38:11.415Z,7.73
2018-12-20T22:40:39.213Z,6.57
2018-12-20T22:43:06.952Z,6.00
2018-12-20T22:45:34.899Z,5.37
2018-12-20T22:48:02.672Z,9.40
2018-12-20T22:50:30.574Z,5.63
2018-12-20T22:52:58.466Z,5.30
2018-12-20T22:55:26.218Z,5.13
2018-12-20T22:57:54.274Z,5.37
2018-12-20T23:00:22.183Z,6.17
2018-12-20T23:02:49.967Z,5.13
2018-12-20T23:05:17.763Z,5.87
2018-12-20T23:07:45.510Z,6.03
2018-12-20T23:10:13.388Z,6.00
2018-12-20T23:12:41.955Z,6.13
2018-12-20T23:15:09.840Z,8.10
2018-12-20T23:17:37.792Z,6.00
2018-12-20T23:20:06.819Z,6.27
2018-12-20T23:22:34.641Z,9.70
2018-12-20T23:25:02.544Z,6.03
2018-12-20T23:27:30.503Z,6.80
2018-12-20T23:29:58.477Z,4.67
2018-12-20T23:32:26.266Z,5.13
2018-12-20T23:34:54.002Z,6.27
2018-12-20T23:37:21.841Z,4.07
2018-12-20T23:39:49.590Z,4.70
2018-12-20T23:42:17.387Z,4.90
2018-12-20T23:44:45.179Z,5.07
2018-12-20T23:47:12.973Z,4.70
2018-12-20T23:49:40.753Z,6.87
2018-12-20T23:52:08.561Z,6.17
2018-12-20T23:54:37.081Z,5.53
2018-12-20T23:57:04.853Z,5.33
2018-12-20T23:59:32.630Z,3.70
